createdAt,value
2023-04-20T00:00:00.837Z,36.29
2023-04-20T00:00:59.841Z,36.25
2023-04-20T00:01:59.949Z,36.27
2023-04-20T00:03:00.998Z,36.29
2023-04-20T00:04:01.169Z,36.28
2023-04-20T00:05:01.056Z,36.28
2023-04-20T00:06:01.051Z,36.25
2023-04-20T00:07:00.099Z,36.28
2023-04-20T00:08:00.183Z,36.28
2023-04-20T00:09:01.229Z,36.28
2023-04-20T00:10:01.249Z,36.27
2023-04-20T00:11:01.277Z,36.27
2023-04-20T00:12:01.341Z,36.24
2023-04-20T00:13:01.352Z,36.28
2023-04-20T00:14:01.433Z,36.25
2023-04-20T00:15:00.467Z,36.21
2023-04-20T00:16:01.478Z,36.28
2023-04-20T00:17:01.577Z,36.25
2023-04-20T00:18:00.645Z,36.26
2023-04-20T00:19:01.623Z,36.27
2023-04-20T00:20:01.646Z,36.22
2023-04-20T00:21:01.699Z,36.25
2023-04-20T00:22:01.753Z,36.22
2023-04-20T00:23:00.780Z,36.28
2023-04-20T00:24:01.859Z,36.21
2023-04-20T00:25:00.857Z,36.23
2023-04-20T00:26:00.931Z,36.21
2023-04-20T00:27:00.952Z,36.21
2023-04-20T00:28:00.981Z,36.13
2023-04-20T00:29:02.046Z,36.17
2023-04-20T00:30:02.144Z,36.20
2023-04-20T00:31:02.158Z,36.19
2023-04-20T00:32:01.176Z,36.19
2023-04-20T00:33:01.247Z,36.17
2023-04-20T00:34:01.262Z,36.12
2023-04-20T00:35:02.298Z,36.16
2023-04-20T00:36:04.919Z,36.20
2023-04-20T00:37:02.630Z,36.15
2023-04-20T00:38:02.320Z,36.19
2023-04-20T00:39:01.358Z,36.17
2023-04-20T00:40:02.326Z,36.15
2023-04-20T00:41:01.315Z,36.13
2023-04-20T00:42:01.490Z,36.15
2023-04-20T00:43:01.298Z,36.13
2023-04-20T00:44:02.279Z,36.13
2023-04-20T00:45:02.277Z,36.15
2023-04-20T00:46:02.318Z,36.15
2023-04-20T00:47:01.284Z,36.15
2023-04-20T00:48:02.313Z,36.12
2023-04-20T00:49:02.258Z,36.15
2023-04-20T00:50:02.262Z,36.17
2023-04-20T00:51:01.247Z,36.12
2023-04-20T00:52:02.248Z,36.13
2023-04-20T00:53:02.249Z,36.15
2023-04-20T00:54:01.227Z,36.16
2023-04-20T00:55:02.217Z,36.12
2023-04-20T00:56:02.208Z,36.12
2023-04-20T00:57:02.268Z,36.13
2023-04-20T00:58:01.455Z,36.13
2023-04-20T00:59:02.348Z,36.09
2023-04-20T01:00:02.412Z,36.13
2023-04-20T01:01:01.429Z,36.11
2023-04-20T01:02:02.606Z,36.11
2023-04-20T01:03:02.697Z,36.12
2023-04-20T01:04:02.594Z,36.13
2023-04-20T01:05:01.644Z,36.13
2023-04-20T01:06:02.648Z,36.11
2023-04-20T01:07:02.691Z,36.12
2023-04-20T01:08:02.755Z,36.09
2023-04-20T01:09:01.807Z,36.07
2023-04-20T01:10:02.863Z,36.11
2023-04-20T01:11:01.935Z,36.08
2023-04-20T01:12:07.137Z,36.08
2023-04-20T01:13:02.956Z,36.07
2023-04-20T01:14:02.989Z,36.04
2023-04-20T01:15:01.938Z,36.07
2023-04-20T01:16:02.969Z,36.04
2023-04-20T01:17:02.937Z,36.08
2023-04-20T01:18:02.988Z,36.07
2023-04-20T01:19:01.972Z,36.06
2023-04-20T01:20:03.054Z,36.05
2023-04-20T01:21:02.096Z,36.07
2023-04-20T01:22:03.141Z,36.07
2023-04-20T01:23:03.174Z,36.01
2023-04-20T01:24:03.199Z,36.04
2023-04-20T01:25:03.269Z,36.00
2023-04-20T01:26:02.306Z,36.04
2023-04-20T01:27:03.354Z,36.01
2023-04-20T01:28:02.408Z,35.97
2023-04-20T01:29:02.464Z,36.01
2023-04-20T01:30:03.552Z,36.01
2023-04-20T01:31:02.562Z,36.00
2023-04-20T01:32:02.596Z,35.96
2023-04-20T01:33:03.657Z,35.99
2023-04-20T01:34:03.669Z,35.98
2023-04-20T01:35:03.775Z,35.99
2023-04-20T01:36:03.794Z,35.99
2023-04-20T01:37:02.843Z,35.96
2023-04-20T01:38:02.894Z,35.93
2023-04-20T01:39:03.932Z,35.97
2023-04-20T01:40:04.072Z,35.95
2023-04-20T01:41:03.014Z,35.98
2023-04-20T01:42:04.060Z,35.95
2023-04-20T01:43:03.103Z,35.96
2023-04-20T01:44:04.148Z,35.95
2023-04-20T01:45:03.209Z,35.95
2023-04-20T01:46:04.285Z,35.96
2023-04-20T01:47:04.373Z,35.99
2023-04-20T01:48:03.371Z,35.96
2023-04-20T01:49:03.411Z,35.95
2023-04-20T01:50:04.471Z,35.96
2023-04-20T01:51:04.506Z,35.96
2023-04-20T01:52:04.573Z,35.95
2023-04-20T01:53:04.617Z,35.93
2023-04-20T01:54:03.655Z,35.99
2023-04-20T01:55:03.699Z,35.91
2023-04-20T01:56:04.752Z,35.93
2023-04-20T01:57:04.810Z,35.91
2023-04-20T01:58:04.859Z,35.95
2023-04-20T01:59:03.940Z,35.95
2023-04-20T02:00:04.954Z,35.93
2023-04-20T02:01:05.049Z,35.93
2023-04-20T02:02:05.160Z,35.92
2023-04-20T02:03:04.190Z,35.93
2023-04-20T02:04:05.141Z,35.92
2023-04-20T02:05:04.172Z,35.93
2023-04-20T02:06:05.234Z,35.92
2023-04-20T02:07:05.275Z,35.92
2023-04-20T02:08:04.320Z,35.88
2023-04-20T02:09:05.379Z,35.91
2023-04-20T02:10:05.407Z,35.91
2023-04-20T02:11:05.467Z,35.92
2023-04-20T02:12:04.515Z,35.91
2023-04-20T02:13:05.546Z,35.89
2023-04-20T02:14:05.602Z,35.89
2023-04-20T02:15:05.654Z,35.87
2023-04-20T02:16:04.687Z,35.89
2023-04-20T02:17:05.817Z,35.88
2023-04-20T02:18:04.893Z,35.89
2023-04-20T02:19:05.842Z,35.88
2023-04-20T02:20:05.896Z,35.87
2023-04-20T02:21:05.952Z,35.85
2023-04-20T02:22:04.999Z,35.82
2023-04-20T02:23:06.095Z,35.85
2023-04-20T02:24:06.112Z,35.84
2023-04-20T02:25:05.146Z,35.81
2023-04-20T02:26:05.877Z,35.80
2023-04-20T02:27:05.233Z,35.83
2023-04-20T02:28:05.695Z,35.80
2023-04-20T02:29:06.383Z,35.81
2023-04-20T02:30:06.812Z,35.76
2023-04-20T02:31:05.525Z,35.84
2023-04-20T02:32:06.504Z,35.80
2023-04-20T02:33:06.547Z,35.79
2023-04-20T02:34:05.632Z,35.84
2023-04-20T02:35:06.693Z,35.83
2023-04-20T02:36:06.730Z,35.85
2023-04-20T02:37:05.812Z,35.85
2023-04-20T02:38:06.817Z,35.84
2023-04-20T02:39:05.871Z,35.80
2023-04-20T02:40:07.032Z,35.78
2023-04-20T02:41:06.961Z,35.86
2023-04-20T02:42:07.040Z,35.87
2023-04-20T02:43:07.081Z,35.85
2023-04-20T02:44:07.102Z,35.82
2023-04-20T02:45:06.171Z,35.83
2023-04-20T02:46:07.216Z,35.82
2023-04-20T02:47:07.249Z,35.78
2023-04-20T02:48:07.310Z,35.84
2023-04-20T02:49:06.347Z,35.85
2023-04-20T02:50:06.418Z,35.83
2023-04-20T02:51:06.461Z,35.85
2023-04-20T02:52:07.528Z,35.81
2023-04-20T02:53:07.559Z,35.83
2023-04-20T02:54:07.644Z,35.84
2023-04-20T02:55:06.683Z,35.86
2023-04-20T02:56:06.767Z,35.87
2023-04-20T02:57:06.782Z,35.84
2023-04-20T02:58:06.826Z,35.86
2023-04-20T02:59:06.880Z,35.83
2023-04-20T03:00:08.049Z,35.84
2023-04-20T03:01:07.013Z,35.84
2023-04-20T03:02:07.163Z,35.81
2023-04-20T03:03:08.239Z,35.82
2023-04-20T03:04:07.336Z,35.81
2023-04-20T03:05:07.241Z,35.78
2023-04-20T03:06:08.381Z,35.82
2023-04-20T03:07:07.353Z,35.79
2023-04-20T03:08:07.426Z,35.81
2023-04-20T03:09:08.772Z,35.74
2023-04-20T03:10:07.714Z,35.81
2023-04-20T03:11:07.597Z,35.75
2023-04-20T03:12:08.642Z,35.74
2023-04-20T03:13:07.685Z,35.73
2023-04-20T03:14:08.756Z,35.75
2023-04-20T03:15:08.848Z,35.70
2023-04-20T03:16:08.069Z,35.75
2023-04-20T03:17:07.908Z,35.70
2023-04-20T03:18:08.998Z,35.71
2023-04-20T03:19:09.037Z,35.71
2023-04-20T03:20:09.179Z,35.65
2023-04-20T03:21:09.120Z,35.68
2023-04-20T03:22:09.225Z,35.67
2023-04-20T03:23:09.231Z,35.65
2023-04-20T03:24:09.251Z,35.65
2023-04-20T03:25:09.304Z,35.64
2023-04-20T03:26:08.345Z,35.59
2023-04-20T03:27:09.398Z,35.61
2023-04-20T03:28:09.428Z,35.60
2023-04-20T03:29:09.525Z,35.64
2023-04-20T03:30:09.538Z,35.61
2023-04-20T03:31:09.585Z,35.57
2023-04-20T03:32:08.663Z,35.55
2023-04-20T03:33:09.715Z,35.58
2023-04-20T03:34:09.730Z,35.62
2023-04-20T03:35:09.848Z,35.61
2023-04-20T03:36:08.830Z,35.57
2023-04-20T03:37:08.860Z,35.57
2023-04-20T03:38:09.944Z,35.58
2023-04-20T03:39:08.961Z,35.58
2023-04-20T03:40:09.010Z,35.51
2023-04-20T03:41:10.061Z,35.55
2023-04-20T03:42:10.079Z,35.51
2023-04-20T03:43:09.114Z,35.53
2023-04-20T03:44:09.157Z,35.57
2023-04-20T03:45:10.213Z,35.53
2023-04-20T03:46:10.280Z,35.54
2023-04-20T03:47:10.288Z,35.50
2023-04-20T03:48:09.321Z,35.51
2023-04-20T03:49:10.345Z,35.54
2023-04-20T03:50:10.387Z,35.53
2023-04-20T03:51:09.426Z,35.50
2023-04-20T03:52:09.468Z,35.51
2023-04-20T03:53:10.524Z,35.49
2023-04-20T03:54:09.555Z,35.53
2023-04-20T03:55:10.542Z,35.50
2023-04-20T03:56:10.584Z,35.44
2023-04-20T03:57:09.629Z,35.45
2023-04-20T03:58:09.665Z,35.46
2023-04-20T03:59:10.717Z,35.46
2023-04-20T04:00:09.733Z,35.48
2023-04-20T04:01:10.778Z,35.50
2023-04-20T04:02:09.820Z,35.46
2023-04-20T04:03:11.025Z,35.51
2023-04-20T04:04:10.092Z,35.48
2023-04-20T04:05:09.940Z,35.48
2023-04-20T04:06:10.915Z,35.45
2023-04-20T04:07:09.932Z,35.46
2023-04-20T04:08:10.999Z,35.49
2023-04-20T04:09:10.016Z,35.46
2023-04-20T04:10:11.073Z,35.44
2023-04-20T04:11:11.111Z,35.49
2023-04-20T04:12:11.124Z,35.49
2023-04-20T04:13:11.149Z,35.48
2023-04-20T04:14:10.183Z,35.45
2023-04-20T04:15:11.209Z,35.50
2023-04-20T04:16:11.268Z,35.45
2023-04-20T04:17:11.324Z,35.48
2023-04-20T04:18:11.312Z,35.42
2023-04-20T04:19:11.341Z,35.44
2023-04-20T04:20:10.373Z,35.44
2023-04-20T04:21:10.465Z,35.46
2023-04-20T04:22:10.465Z,35.45
2023-04-20T04:23:10.488Z,35.40
2023-04-20T04:24:11.524Z,35.46
2023-04-20T04:25:11.845Z,35.42
2023-04-20T04:26:10.603Z,35.42
2023-04-20T04:27:11.621Z,35.45
2023-04-20T04:28:11.667Z,35.41
2023-04-20T04:29:11.676Z,35.43
2023-04-20T04:30:11.749Z,35.37
2023-04-20T04:31:10.759Z,35.40
2023-04-20T04:32:11.787Z,35.40
2023-04-20T04:33:10.807Z,35.43
2023-04-20T04:34:11.851Z,35.40
2023-04-20T04:35:11.862Z,35.41
2023-04-20T04:36:11.912Z,35.40
2023-04-20T04:37:10.995Z,35.33
2023-04-20T04:38:11.963Z,35.38
2023-04-20T04:39:12.083Z,35.36
2023-04-20T04:40:11.082Z,35.36
2023-04-20T04:41:11.064Z,35.36
2023-04-20T04:42:11.132Z,35.34
2023-04-20T04:43:11.126Z,35.36
2023-04-20T04:44:12.163Z,35.32
2023-04-20T04:45:12.233Z,35.31
2023-04-20T04:46:12.235Z,35.34
2023-04-20T04:47:12.262Z,35.30
2023-04-20T04:48:12.639Z,35.34
2023-04-20T04:49:11.331Z,35.30
2023-04-20T04:50:11.370Z,35.28
2023-04-20T04:51:12.442Z,35.27
2023-04-20T04:52:12.437Z,35.27
2023-04-20T04:53:12.472Z,35.29
2023-04-20T04:54:11.478Z,35.26
2023-04-20T04:55:13.837Z,35.22
2023-04-20T04:56:11.515Z,35.25
2023-04-20T04:57:12.500Z,35.25
2023-04-20T04:58:11.546Z,35.22
2023-04-20T04:59:11.501Z,35.19
2023-04-20T05:00:12.501Z,35.19
2023-04-20T05:01:12.469Z,35.19
2023-04-20T05:02:12.531Z,35.18
2023-04-20T05:03:12.542Z,35.16
2023-04-20T05:04:12.604Z,35.14
2023-04-20T05:05:12.713Z,35.13
2023-04-20T05:06:11.513Z,35.17
2023-04-20T05:07:12.532Z,35.13
2023-04-20T05:08:12.535Z,35.09
2023-04-20T05:09:12.438Z,35.14
2023-04-20T05:10:14.120Z,35.11
2023-04-20T05:11:11.446Z,35.14
2023-04-20T05:12:12.401Z,35.08
2023-04-20T05:13:12.394Z,35.11
2023-04-20T05:14:11.415Z,35.09
2023-04-20T05:15:12.395Z,35.12
2023-04-20T05:16:12.415Z,35.01
2023-04-20T05:17:11.386Z,35.00
2023-04-20T05:18:11.378Z,35.01
2023-04-20T05:19:11.397Z,35.01
2023-04-20T05:20:11.352Z,34.98
2023-04-20T05:21:12.347Z,35.08
2023-04-20T05:22:12.344Z,35.05
2023-04-20T05:23:11.321Z,35.01
2023-04-20T05:24:11.319Z,35.02
2023-04-20T05:25:13.997Z,35.06
2023-04-20T05:26:11.322Z,35.22
2023-04-20T05:27:12.302Z,35.28
2023-04-20T05:28:11.278Z,35.40
2023-04-20T05:29:12.291Z,35.54
2023-04-20T05:30:20.864Z,35.46
2023-04-20T05:31:12.284Z,35.60
2023-04-20T05:32:12.317Z,35.73
2023-04-20T05:33:12.277Z,35.80
2023-04-20T05:34:12.280Z,35.95
2023-04-20T05:35:12.234Z,36.11
2023-04-20T05:36:12.316Z,36.00
2023-04-20T05:37:12.257Z,36.56
2023-04-20T05:38:11.482Z,36.50
2023-04-20T05:39:12.243Z,36.51
2023-04-20T05:40:12.292Z,36.46
2023-04-20T05:41:11.358Z,36.36
2023-04-20T05:42:12.231Z,36.50
2023-04-20T05:43:11.290Z,36.54
2023-04-20T05:44:12.201Z,36.96
2023-04-20T05:45:11.246Z,37.12
2023-04-20T05:46:12.259Z,37.11
2023-04-20T05:47:12.222Z,37.26
2023-04-20T05:48:12.170Z,37.05
2023-04-20T05:49:12.152Z,37.12
2023-04-20T05:50:12.146Z,37.11
2023-04-20T05:51:12.127Z,37.59
2023-04-20T05:52:11.128Z,37.56
2023-04-20T05:53:12.125Z,37.75
2023-04-20T05:54:12.146Z,37.64
2023-04-20T05:55:11.150Z,38.25
2023-04-20T05:56:12.169Z,38.41
2023-04-20T05:57:12.076Z,38.40
2023-04-20T05:58:12.077Z,38.34
2023-04-20T05:59:12.080Z,38.49
2023-04-20T06:00:12.080Z,38.91
2023-04-20T06:01:12.184Z,39.23
2023-04-20T06:02:11.249Z,39.16
2023-04-20T06:03:12.281Z,39.09
2023-04-20T06:04:11.550Z,38.70
2023-04-20T06:05:12.128Z,38.68
2023-04-20T06:06:11.034Z,38.75
2023-04-20T06:07:11.060Z,38.58
2023-04-20T06:08:12.021Z,38.33
2023-04-20T06:09:12.028Z,38.50
2023-04-20T06:10:11.033Z,38.32
2023-04-20T06:11:12.029Z,38.02
2023-04-20T06:12:12.036Z,37.83
2023-04-20T06:13:11.988Z,37.74
2023-04-20T06:14:12.012Z,37.60
2023-04-20T06:15:11.191Z,37.59
2023-04-20T06:16:12.104Z,37.35
2023-04-20T06:17:12.001Z,37.26
2023-04-20T06:18:12.139Z,37.25
2023-04-20T06:19:12.025Z,37.14
2023-04-20T06:20:11.944Z,37.09
2023-04-20T06:21:11.941Z,37.06
2023-04-20T06:22:11.917Z,36.96
2023-04-20T06:23:12.019Z,36.87
2023-04-20T06:24:12.019Z,36.89
2023-04-20T06:25:11.927Z,36.70
2023-04-20T06:26:11.939Z,36.81
2023-04-20T06:27:12.040Z,37.55
2023-04-20T06:28:12.077Z,37.26
2023-04-20T06:29:12.076Z,37.16
2023-04-20T06:30:11.119Z,36.82
2023-04-20T06:31:11.278Z,36.74
2023-04-20T06:32:12.196Z,36.52
2023-04-20T06:33:12.530Z,36.38
2023-04-20T06:34:11.355Z,36.27
2023-04-20T06:35:11.295Z,36.39
2023-04-20T06:36:12.342Z,36.18
2023-04-20T06:37:11.705Z,36.35
2023-04-20T06:38:12.431Z,36.24
2023-04-20T06:39:12.480Z,36.23
2023-04-20T06:40:13.717Z,36.13
2023-04-20T06:41:12.531Z,36.06
2023-04-20T06:42:12.525Z,35.98
2023-04-20T06:43:12.478Z,35.82
2023-04-20T06:44:11.541Z,35.77
2023-04-20T06:45:12.480Z,35.63
2023-04-20T06:46:12.527Z,35.55
2023-04-20T06:47:11.482Z,35.55
2023-04-20T06:48:30.074Z,35.57
2023-04-20T06:49:12.495Z,36.11
2023-04-20T06:50:11.475Z,36.26
2023-04-20T06:51:12.439Z,37.81
2023-04-20T06:52:12.628Z,37.32
2023-04-20T06:53:11.430Z,37.30
2023-04-20T06:54:12.449Z,37.25
2023-04-20T06:55:12.450Z,37.29
2023-04-20T06:56:12.452Z,39.15
2023-04-20T06:57:12.668Z,40.17
2023-04-20T06:58:12.379Z,37.85
2023-04-20T06:59:12.380Z,36.76
2023-04-20T07:00:12.378Z,36.14
2023-04-20T07:01:12.408Z,35.93
2023-04-20T07:02:12.455Z,36.00
2023-04-20T07:03:12.598Z,35.60
2023-04-20T07:04:11.465Z,36.53
2023-04-20T07:05:12.375Z,35.77
2023-04-20T07:06:12.342Z,36.08
2023-04-20T07:07:12.332Z,36.38
2023-04-20T07:08:12.329Z,35.68
2023-04-20T07:09:11.343Z,35.75
2023-04-20T07:10:11.309Z,36.49
2023-04-20T07:11:11.314Z,37.40
2023-04-20T07:12:11.320Z,36.30
2023-04-20T07:13:12.278Z,36.56
2023-04-20T07:14:11.359Z,37.23
2023-04-20T07:15:11.333Z,37.32
2023-04-20T07:16:12.423Z,37.92
2023-04-20T07:17:12.284Z,37.74
2023-04-20T07:18:12.357Z,37.23
2023-04-20T07:19:12.301Z,37.81
2023-04-20T07:20:11.426Z,38.41
2023-04-20T07:21:12.410Z,37.89
2023-04-20T07:22:12.515Z,37.15
2023-04-20T07:23:12.542Z,38.86
2023-04-20T07:24:12.601Z,37.76
2023-04-20T07:25:15.665Z,37.19
2023-04-20T07:26:12.773Z,37.73
2023-04-20T07:27:12.652Z,37.34
2023-04-20T07:28:12.628Z,37.54
2023-04-20T07:29:11.603Z,38.22
2023-04-20T07:30:11.607Z,38.08
2023-04-20T07:31:11.597Z,38.50
2023-04-20T07:32:12.734Z,38.95
2023-04-20T07:33:12.643Z,38.75
2023-04-20T07:34:12.601Z,39.14
2023-04-20T07:35:11.586Z,39.06
2023-04-20T07:36:12.556Z,38.78
2023-04-20T07:37:12.560Z,39.05
2023-04-20T07:38:11.592Z,39.24
2023-04-20T07:39:11.531Z,39.69
2023-04-20T07:40:12.520Z,39.79
2023-04-20T07:41:11.533Z,39.03
2023-04-20T07:42:12.551Z,39.26
2023-04-20T07:43:11.554Z,39.41
2023-04-20T07:44:12.565Z,40.96
2023-04-20T07:45:12.517Z,42.69
2023-04-20T07:46:12.593Z,40.94
2023-04-20T07:47:14.184Z,47.00
2023-04-20T07:48:11.519Z,47.11
2023-04-20T07:49:12.449Z,44.01
2023-04-20T07:50:12.442Z,43.75
2023-04-20T07:51:12.449Z,44.58
2023-04-20T07:52:16.502Z,44.14
2023-04-20T07:53:12.445Z,44.89
2023-04-20T07:54:11.440Z,46.30
2023-04-20T07:55:12.444Z,46.04
2023-04-20T07:56:11.456Z,44.54
2023-04-20T07:57:12.454Z,44.70
2023-04-20T07:58:11.524Z,44.26
2023-04-20T07:59:11.545Z,43.26
2023-04-20T08:00:11.371Z,42.72
2023-04-20T08:01:12.563Z,42.24
2023-04-20T08:02:12.443Z,41.68
2023-04-20T08:03:11.505Z,41.39
2023-04-20T08:04:11.624Z,40.90
2023-04-20T08:05:12.650Z,40.63
2023-04-20T08:06:11.368Z,40.31
2023-04-20T08:07:11.353Z,39.66
2023-04-20T08:08:12.334Z,39.69
2023-04-20T08:09:13.366Z,39.40
2023-04-20T08:10:12.370Z,39.13
2023-04-20T08:11:12.326Z,39.06
2023-04-20T08:12:12.302Z,38.84
2023-04-20T08:13:12.309Z,38.62
2023-04-20T08:14:12.269Z,38.50
2023-04-20T08:15:12.305Z,38.31
2023-04-20T08:16:12.398Z,38.06
2023-04-20T08:17:11.425Z,37.92
2023-04-20T08:18:12.491Z,37.80
2023-04-20T08:19:11.456Z,37.62
2023-04-20T08:20:11.492Z,37.60
2023-04-20T08:21:12.518Z,37.46
2023-04-20T08:22:12.624Z,37.40
2023-04-20T08:23:12.556Z,37.31
2023-04-20T08:24:11.600Z,37.19
2023-04-20T08:25:12.649Z,37.08
2023-04-20T08:26:12.686Z,37.04
2023-04-20T08:27:11.703Z,36.91
2023-04-20T08:28:24.294Z,36.86
2023-04-20T08:29:12.673Z,36.84
2023-04-20T08:30:11.658Z,36.75
2023-04-20T08:31:12.697Z,36.80
2023-04-20T08:32:12.647Z,36.82
2023-04-20T08:33:11.726Z,36.69
2023-04-20T08:34:12.619Z,36.71
2023-04-20T08:35:12.620Z,36.69
2023-04-20T08:36:11.675Z,36.67
2023-04-20T08:37:12.627Z,36.63
2023-04-20T08:38:15.767Z,36.58
2023-04-20T08:39:12.578Z,36.56
2023-04-20T08:40:11.595Z,36.35
2023-04-20T08:41:12.677Z,36.33
2023-04-20T08:42:12.768Z,36.36
2023-04-20T08:43:11.640Z,35.74
2023-04-20T08:44:11.566Z,35.52
2023-04-20T08:45:11.571Z,36.68
2023-04-20T08:46:12.567Z,36.04
2023-04-20T08:47:12.566Z,35.31
2023-04-20T08:48:11.529Z,34.68
2023-04-20T08:49:12.490Z,35.82
2023-04-20T08:50:11.504Z,35.60
2023-04-20T08:51:12.538Z,34.92
2023-04-20T08:52:11.572Z,34.89
2023-04-20T08:53:12.686Z,36.13
2023-04-20T08:54:12.640Z,36.35
2023-04-20T08:55:11.709Z,36.95
2023-04-20T08:56:12.435Z,36.54
2023-04-20T08:57:12.674Z,36.76
2023-04-20T08:58:11.486Z,36.75
2023-04-20T08:59:11.430Z,36.66
2023-04-20T09:00:13.564Z,36.65
2023-04-20T09:01:12.767Z,36.42
2023-04-20T09:02:12.713Z,34.77
2023-04-20T09:03:12.903Z,34.15
2023-04-20T09:04:12.950Z,34.43
2023-04-20T09:05:12.899Z,34.63
2023-04-20T09:06:12.966Z,35.93
2023-04-20T09:07:12.903Z,36.12
2023-04-20T09:08:12.955Z,36.35
2023-04-20T09:09:11.938Z,36.37
2023-04-20T09:10:12.129Z,36.34
2023-04-20T09:11:11.972Z,36.34
2023-04-20T09:12:12.987Z,36.33
2023-04-20T09:13:12.997Z,36.27
2023-04-20T09:14:12.149Z,36.25
2023-04-20T09:15:13.380Z,36.26
2023-04-20T09:16:13.033Z,36.21
2023-04-20T09:17:12.983Z,36.25
2023-04-20T09:18:12.995Z,36.23
2023-04-20T09:19:13.934Z,36.17
2023-04-20T09:20:12.066Z,36.15
2023-04-20T09:21:12.008Z,36.09
2023-04-20T09:22:13.057Z,36.10
2023-04-20T09:23:12.107Z,36.06
2023-04-20T09:24:13.112Z,36.05
2023-04-20T09:25:13.174Z,36.04
2023-04-20T09:26:12.194Z,35.98
2023-04-20T09:27:12.246Z,36.03
2023-04-20T09:28:13.381Z,35.99
2023-04-20T09:29:12.369Z,35.97
2023-04-20T09:30:12.567Z,35.98
2023-04-20T09:31:15.093Z,35.97
2023-04-20T09:32:12.729Z,35.95
2023-04-20T09:33:13.738Z,36.00
2023-04-20T09:34:13.888Z,36.01
2023-04-20T09:35:12.928Z,35.98
2023-04-20T09:36:12.932Z,35.99
2023-04-20T09:37:13.031Z,35.99
2023-04-20T09:38:14.048Z,36.16
2023-04-20T09:39:14.090Z,36.15
2023-04-20T09:40:14.216Z,36.06
2023-04-20T09:41:13.242Z,36.07
2023-04-20T09:42:14.280Z,36.09
2023-04-20T09:43:15.321Z,36.10
2023-04-20T09:44:14.498Z,36.06
2023-04-20T09:45:13.449Z,36.13
2023-04-20T09:46:14.568Z,36.63
2023-04-20T09:47:14.838Z,37.46
2023-04-20T09:48:13.924Z,37.97
2023-04-20T09:49:14.463Z,38.15
2023-04-20T09:50:26.575Z,38.01
2023-04-20T09:51:14.549Z,38.60
2023-04-20T09:52:14.753Z,37.95
2023-04-20T09:53:14.668Z,37.17
2023-04-20T09:54:14.533Z,37.23
2023-04-20T09:55:14.433Z,37.41
2023-04-20T09:56:13.418Z,37.54
2023-04-20T09:57:14.409Z,37.84
2023-04-20T09:58:14.548Z,38.02
2023-04-20T09:59:14.473Z,38.06
2023-04-20T10:00:14.453Z,38.20
2023-04-20T10:01:13.532Z,38.16
2023-04-20T10:02:13.722Z,38.19
2023-04-20T10:03:13.600Z,38.11
2023-04-20T10:04:14.774Z,38.11
2023-04-20T10:05:14.366Z,37.92
2023-04-20T10:06:14.365Z,37.91
2023-04-20T10:07:13.442Z,38.00
2023-04-20T10:08:13.391Z,37.90
2023-04-20T10:09:14.334Z,37.90
2023-04-20T10:10:14.837Z,37.94
2023-04-20T10:11:14.421Z,37.95
2023-04-20T10:12:14.358Z,37.96
2023-04-20T10:13:13.518Z,38.03
2023-04-20T10:14:13.383Z,38.05
2023-04-20T10:15:13.326Z,38.00
2023-04-20T10:16:14.406Z,38.06
2023-04-20T10:17:14.344Z,38.05
2023-04-20T10:18:14.460Z,37.97
2023-04-20T10:19:13.279Z,37.84
2023-04-20T10:20:14.342Z,37.85
2023-04-20T10:21:14.336Z,37.92
2023-04-20T10:22:14.344Z,37.95
2023-04-20T10:23:14.504Z,38.01
2023-04-20T10:24:14.456Z,37.99
2023-04-20T10:25:13.430Z,37.99
2023-04-20T10:26:15.245Z,38.07
2023-04-20T10:27:14.090Z,37.87
2023-04-20T10:28:14.476Z,37.92
2023-04-20T10:29:13.516Z,37.99
2023-04-20T10:30:20.495Z,37.89
2023-04-20T10:31:14.607Z,37.83
2023-04-20T10:32:16.516Z,37.89
2023-04-20T10:33:13.560Z,37.89
2023-04-20T10:34:14.595Z,37.83
2023-04-20T10:35:14.456Z,37.70
2023-04-20T10:36:14.469Z,37.75
2023-04-20T10:37:14.453Z,37.39
2023-04-20T10:38:13.741Z,37.24
2023-04-20T10:39:13.430Z,37.10
2023-04-20T10:40:13.449Z,37.14
2023-04-20T10:41:14.434Z,37.37
2023-04-20T10:42:16.701Z,38.49
2023-04-20T10:43:14.744Z,39.14
2023-04-20T10:44:14.397Z,38.49
2023-04-20T10:45:13.416Z,38.87
2023-04-20T10:46:14.423Z,38.62
2023-04-20T10:47:13.405Z,38.39
2023-04-20T10:48:17.409Z,37.83
2023-04-20T10:49:14.388Z,37.65
2023-04-20T10:50:14.634Z,37.83
2023-04-20T10:51:13.357Z,38.14
2023-04-20T10:52:14.342Z,38.62
2023-04-20T10:53:13.350Z,38.13
2023-04-20T10:54:15.411Z,38.14
2023-04-20T10:55:14.363Z,38.04
2023-04-20T10:56:14.325Z,37.89
2023-04-20T10:57:13.315Z,37.64
2023-04-20T10:58:14.314Z,37.55
2023-04-20T10:59:13.296Z,37.29
2023-04-20T11:00:14.287Z,37.14
2023-04-20T11:01:14.286Z,37.11
2023-04-20T11:02:14.456Z,37.03
2023-04-20T11:03:14.368Z,36.96
2023-04-20T11:04:14.083Z,36.99
2023-04-20T11:05:14.382Z,36.97
2023-04-20T11:06:14.284Z,36.95
2023-04-20T11:07:14.243Z,36.92
2023-04-20T11:08:13.246Z,36.93
2023-04-20T11:09:13.231Z,36.77
2023-04-20T11:10:13.239Z,36.83
2023-04-20T11:11:14.226Z,36.72
2023-04-20T11:12:14.207Z,36.75
2023-04-20T11:13:14.219Z,36.78
2023-04-20T11:14:13.240Z,37.09
2023-04-20T11:15:13.181Z,36.87
2023-04-20T11:16:14.224Z,36.86
2023-04-20T11:17:14.223Z,37.01
2023-04-20T11:18:13.214Z,36.83
2023-04-20T11:19:14.174Z,36.72
2023-04-20T11:20:14.233Z,36.66
2023-04-20T11:21:14.143Z,36.60
2023-04-20T11:22:13.203Z,36.55
2023-04-20T11:23:13.220Z,36.50
2023-04-20T11:24:13.253Z,36.83
2023-04-20T11:25:14.298Z,36.62
2023-04-20T11:26:14.320Z,36.56
2023-04-20T11:27:14.331Z,36.71
2023-04-20T11:28:13.787Z,36.79
2023-04-20T11:29:14.397Z,36.71
2023-04-20T11:30:13.425Z,36.61
2023-04-20T11:31:14.500Z,36.62
2023-04-20T11:32:13.572Z,36.58
2023-04-20T11:33:13.649Z,36.58
2023-04-20T11:34:14.516Z,36.52
2023-04-20T11:35:14.541Z,36.84
2023-04-20T11:36:14.598Z,38.15
2023-04-20T11:37:13.626Z,37.51
2023-04-20T11:38:14.886Z,37.31
2023-04-20T11:39:14.716Z,37.17
2023-04-20T11:40:13.741Z,37.12
2023-04-20T11:41:14.776Z,37.03
2023-04-20T11:42:14.794Z,36.89
2023-04-20T11:43:14.271Z,36.82
2023-04-20T11:44:13.859Z,36.70
2023-04-20T11:45:13.890Z,36.53
2023-04-20T11:46:14.987Z,36.39
2023-04-20T11:47:14.915Z,36.38
2023-04-20T11:48:14.949Z,36.31
2023-04-20T11:49:15.073Z,36.32
2023-04-20T11:50:13.999Z,36.28
2023-04-20T11:51:14.014Z,36.22
2023-04-20T11:52:14.037Z,36.28
2023-04-20T11:53:15.052Z,36.20
2023-04-20T11:54:15.137Z,36.22
2023-04-20T11:55:14.103Z,36.11
2023-04-20T11:56:15.157Z,36.05
2023-04-20T11:57:15.153Z,35.98
2023-04-20T11:58:14.190Z,35.87
2023-04-20T11:59:14.192Z,35.85
2023-04-20T12:00:14.329Z,35.80
2023-04-20T12:01:14.242Z,35.76
2023-04-20T12:02:15.333Z,35.77
2023-04-20T12:03:14.399Z,35.75
2023-04-20T12:04:14.746Z,35.75
2023-04-20T12:05:14.399Z,35.63
2023-04-20T12:06:15.354Z,35.71
2023-04-20T12:07:15.343Z,35.78
2023-04-20T12:08:15.384Z,35.73
2023-04-20T12:09:15.518Z,35.78
2023-04-20T12:10:14.550Z,35.76
2023-04-20T12:11:15.437Z,35.88
2023-04-20T12:12:15.448Z,35.90
2023-04-20T12:13:15.492Z,35.85
2023-04-20T12:14:15.486Z,35.79
2023-04-20T12:15:15.506Z,35.79
2023-04-20T12:16:15.576Z,35.84
2023-04-20T12:17:14.537Z,35.94
2023-04-20T12:18:15.590Z,36.22
2023-04-20T12:19:15.692Z,36.84
2023-04-20T12:20:14.619Z,37.47
2023-04-20T12:21:14.651Z,37.86
2023-04-20T12:22:15.655Z,38.24
2023-04-20T12:23:15.791Z,38.29
2023-04-20T12:24:15.686Z,38.03
2023-04-20T12:25:14.715Z,38.41
2023-04-20T12:26:14.790Z,38.13
2023-04-20T12:27:15.750Z,37.97
2023-04-20T12:28:15.797Z,37.71
2023-04-20T12:29:16.172Z,37.59
2023-04-20T12:30:14.809Z,36.97
2023-04-20T12:31:15.865Z,36.55
2023-04-20T12:32:15.854Z,36.59
2023-04-20T12:33:14.894Z,36.65
2023-04-20T12:34:14.886Z,36.41
2023-04-20T12:35:14.934Z,36.30
2023-04-20T12:36:15.923Z,35.97
2023-04-20T12:37:14.974Z,36.05
2023-04-20T12:38:15.984Z,35.88
2023-04-20T12:39:16.011Z,35.79
2023-04-20T12:40:16.023Z,35.87
2023-04-20T12:41:16.039Z,35.87
2023-04-20T12:42:15.125Z,35.81
2023-04-20T12:43:15.096Z,35.95
2023-04-20T12:44:15.110Z,35.93
2023-04-20T12:45:16.144Z,35.76
2023-04-20T12:46:16.202Z,35.56
2023-04-20T12:47:15.180Z,35.42
2023-04-20T12:48:15.211Z,35.42
2023-04-20T12:49:16.376Z,36.73
2023-04-20T12:50:15.216Z,35.96
2023-04-20T12:51:15.276Z,35.61
2023-04-20T12:52:15.253Z,35.66